Time;durP1;ratioP1;P1;durP2;ratioP2;P2;SDS_P1;SDS_P2;PMS_P1;PMS_P2;Temp;Humidity;BMP_temperature;BMP_pressure;BME280_temperature;BME280_humidity;BME280_pressure;Samples;Min_cycle;Max_cycle;Signal;HPM_P1;HPM_P2
2023/03/21 00:02:05;;;;;;;8.90;8.00;;;;;;;;;;5074381;28;20294;-85
2023/03/21 00:04:53;;;;;;;9.80;8.85;;;;;;;;;;5053696;28;20052;-85
2023/03/21 00:08:10;;;;;;;9.57;8.57;;;;;;;;;;5071230;28;20616;-84
2023/03/21 00:11:03;;;;;;;9.35;8.43;;;;;;;;;;5071733;28;20329;-84
2023/03/21 00:14:01;;;;;;;10.13;8.95;;;;;;;;;;5068104;28;20051;-83
2023/03/21 00:16:33;;;;;;;9.85;8.95;;;;;;;;;;5060779;28;20067;-83
2023/03/21 00:19:06;;;;;;;9.32;8.38;;;;;;;;;;5068340;28;20045;-84
2023/03/21 00:21:42;;;;;;;8.10;7.40;;;;;;;;;;5070588;28;20037;-84
2023/03/21 00:24:34;;;;;;;9.63;7.97;;;;;;;;;;5066685;28;20033;-83
2023/03/21 00:27:16;;;;;;;9.65;8.20;;;;;;;;;;5050707;28;20048;-84
2023/03/21 00:30:11;;;;;;;10.40;7.72;;;;;;;;;;5067453;28;20045;-83
2023/03/21 00:32:41;;;;;;;8.70;7.82;;;;;;;;;;5046283;28;20051;-85
2023/03/21 00:35:26;;;;;;;9.55;8.32;;;;;;;;;;5045570;28;20060;-84
2023/03/21 00:38:28;;;;;;;10.50;8.30;;;;;;;;;;5051813;28;20040;-83
2023/03/21 00:41:06;;;;;;;9.57;8.68;;;;;;;;;;5049178;28;20122;-83
2023/03/21 00:43:54;;;;;;;10.07;8.32;;;;;;;;;;5046119;28;20044;-85
2023/03/21 00:46:24;;;;;;;8.98;8.07;;;;;;;;;;5062004;28;20123;-83
2023/03/21 00:49:02;;;;;;;8.90;8.00;;;;;;;;;;5043990;28;20060;-84
2023/03/21 00:51:30;;;;;;;8.60;7.80;;;;;;;;;;5049775;28;20067;-86
2023/03/21 00:54:04;;;;;;;8.70;7.85;;;;;;;;;;5061159;28;20056;-84
2023/03/21 00:56:32;;;;;;;;;;;;;;;;;;5068045;28;20051;-84
2023/03/21 00:59:01;;;;;;;9.10;7.15;;;;;;;;;;5068971;28;19920;-85
2023/03/21 01:01:30;;;;;;;7.82;7.03;;;;;;;;;;5086614;28;20044;-86
2023/03/21 01:04:09;;;;;;;8.75;7.40;;;;;;;;;;5077729;28;20110;-86
2023/03/21 01:06:39;;;;;;;8.85;7.57;;;;;;;;;;5053853;28;20431;-84
2023/03/21 01:09:10;;;;;;;8.52;7.63;;;;;;;;;;5071562;28;20189;-84
2023/03/21 01:11:37;;;;;;;9.00;7.60;;;;;;;;;;5048734;28;20056;-84
2023/03/21 01:14:05;;;;;;;7.90;7.20;;;;;;;;;;5059781;28;20044;-86
2023/03/21 01:16:52;;;;;;;7.50;6.80;;;;;;;;;;5037795;28;20037;-84
2023/03/21 01:19:24;;;;;;;7.72;6.35;;;;;;;;;;5066718;28;20048;-84
2023/03/21 01:22:07;;;;;;;7.85;7.03;;;;;;;;;;5051989;28;20037;-84
2023/03/21 01:24:35;;;;;;;7.97;6.90;;;;;;;;;;5061819;28;20048;-84
2023/03/21 01:27:19;;;;;;;8.07;6.57;;;;;;;;;;5063597;28;20036;-84
2023/03/21 01:29:49;;;;;;;7.68;6.97;;;;;;;;;;5042720;28;20041;-83
2023/03/21 01:32:20;;;;;;;8.93;6.78;;;;;;;;;;5064148;28;20166;-83
2023/03/21 01:34:51;;;;;;;8.30;7.50;;;;;;;;;;5062322;28;20047;-83
2023/03/21 01:37:25;;;;;;;;;;;;;;;;;;5035842;28;20032;-83
2023/03/21 01:39:52;;;;;;;6.72;6.13;;;;;;;;;;5049416;28;20305;-84
2023/03/21 01:42:44;;;;;;;9.88;7.18;;;;;;;;;;5057129;28;20068;-83
2023/03/21 01:45:36;;;;;;;7.40;6.70;;;;;;;;;;5044279;28;20305;-83
2023/03/21 01:48:07;;;;;;;7.95;7.15;;;;;;;;;;5060332;28;20144;-84
2023/03/21 01:50:46;;;;;;;7.63;6.82;;;;;;;;;;5041965;28;20037;-85
2023/03/21 01:53:34;;;;;;;6.82;6.22;;;;;;;;;;5041494;28;20052;-84
2023/03/21 01:56:16;;;;;;;7.57;6.82;;;;;;;;;;5051755;28;20037;-85
2023/03/21 01:58:54;;;;;;;7.30;6.63;;;;;;;;;;5049590;28;20058;-83
2023/03/21 02:01:49;;;;;;;6.22;5.65;;;;;;;;;;5058051;28;20114;-84
2023/03/21 02:04:26;;;;;;;6.75;6.05;;;;;;;;;;5045798;28;20041;-84
2023/03/21 02:07:13;;;;;;;8.00;6.85;;;;;;;;;;5054766;28;20033;-83
2023/03/21 02:09:50;;;;;;;7.63;6.80;;;;;;;;;;5041847;28;20512;-84
2023/03/21 02:12:24;;;;;;;7.10;6.30;;;;;;;;;;5047856;28;20041;-84
2023/03/21 02:14:57;;;;;;;7.72;6.93;;;;;;;;;;5055478;28;20045;-84
2023/03/21 02:18:07;;;;;;;6.95;6.32;;;;;;;;;;5048990;28;20059;-84
2023/03/21 02:21:10;;;;;;;6.78;6.07;;;;;;;;;;5052401;28;20032;-84
2023/03/21 02:24:02;;;;;;;7.13;6.18;;;;;;;;;;5076446;28;20049;-86
2023/03/21 02:26:54;;;;;;;7.25;6.55;;;;;;;;;;5060924;28;23400;-84
2023/03/21 02:29:45;;;;;;;6.55;5.95;;;;;;;;;;5052598;28;20155;-85
2023/03/21 02:32:31;;;;;;;6.97;6.28;;;;;;;;;;5049625;28;20048;-85
2023/03/21 02:35:28;;;;;;;7.03;6.00;;;;;;;;;;5046550;28;20386;-84
2023/03/21 02:37:59;;;;;;;6.65;6.05;;;;;;;;;;5053763;28;20051;-84
2023/03/21 02:40:52;;;;;;;6.85;6.25;;;;;;;;;;5050245;28;20044;-85
2023/03/21 02:43:36;;;;;;;8.60;5.88;;;;;;;;;;5048737;28;20052;-85
2023/03/21 02:46:25;;;;;;;7.28;6.03;;;;;;;;;;5051973;28;20044;-84
2023/03/21 02:49:12;;;;;;;6.78;6.18;;;;;;;;;;5067731;28;20052;-84
2023/03/21 02:51:45;;;;;;;8.48;6.20;;;;;;;;;;5051852;28;20106;-85
2023/03/21 02:54:15;;;;;;;6.25;5.72;;;;;;;;;;5058044;28;20044;-84
2023/03/21 02:57:12;;;;;;;8.23;5.80;;;;;;;;;;5046747;28;20112;-84
2023/03/21 02:59:43;;;;;;;8.88;6.15;;;;;;;;;;5056471;28;20478;-84
2023/03/21 03:02:29;;;;;;;6.60;6.00;;;;;;;;;;5053814;28;20040;-84
2023/03/21 03:05:00;;;;;;;6.85;6.15;;;;;;;;;;5056056;28;20056;-84
2023/03/21 03:08:10;;;;;;;7.60;6.60;;;;;;;;;;5062132;28;20045;-84
2023/03/21 03:11:00;;;;;;;7.63;6.85;;;;;;;;;;5049562;28;20052;-83
2023/03/21 03:13:32;;;;;;;7.32;6.70;;;;;;;;;;5050758;28;20045;-83
2023/03/21 03:16:39;;;;;;;6.97;6.38;;;;;;;;;;5051242;28;20032;-83
2023/03/21 03:19:22;;;;;;;8.18;6.32;;;;;;;;;;5065144;28;20464;-83
2023/03/21 03:21:56;;;;;;;7.63;6.60;;;;;;;;;;5053670;28;20124;-84
2023/03/21 03:24:30;;;;;;;7.25;6.55;;;;;;;;;;5050063;28;20037;-83
2023/03/21 03:27:26;;;;;;;8.15;7.35;;;;;;;;;;5054051;28;20118;-84
2023/03/21 03:29:58;;;;;;;7.15;6.47;;;;;;;;;;5038568;28;20068;-83
2023/03/21 03:32:50;;;;;;;9.32;7.13;;;;;;;;;;5052896;28;20040;-83
2023/03/21 03:35:24;;;;;;;6.43;5.88;;;;;;;;;;5060512;28;20041;-83
2023/03/21 03:37:57;;;;;;;10.00;6.55;;;;;;;;;;5064028;28;20044;-84
2023/03/21 03:40:36;;;;;;;7.50;6.30;;;;;;;;;;5054221;28;20040;-83
2023/03/21 03:43:18;;;;;;;6.30;5.63;;;;;;;;;;5060704;28;20049;-84
2023/03/21 03:45:56;;;;;;;6.90;6.20;;;;;;;;;;5066411;28;20045;-85
2023/03/21 03:48:44;;;;;;;7.03;6.20;;;;;;;;;;5073465;28;20041;-86
2023/03/21 03:51:37;;;;;;;7.75;6.55;;;;;;;;;;5071821;28;20307;-84
2023/03/21 03:54:17;;;;;;;6.90;6.30;;;;;;;;;;5058772;28;20076;-84
2023/03/21 03:56:45;;;;;;;9.68;7.53;;;;;;;;;;5056109;28;20513;-84
2023/03/21 03:59:20;;;;;;;7.43;6.70;;;;;;;;;;5054941;28;20045;-84
2023/03/21 04:02:02;;;;;;;9.75;6.75;;;;;;;;;;5052334;28;20056;-83
2023/03/21 04:04:38;;;;;;;8.48;6.60;;;;;;;;;;5072600;28;20498;-83
2023/03/21 04:07:10;;;;;;;7.50;6.80;;;;;;;;;;5044294;28;20559;-82
2023/03/21 04:09:39;;;;;;;7.65;6.95;;;;;;;;;;5050962;28;20041;-83
2023/03/21 04:12:16;;;;;;;7.32;6.57;;;;;;;;;;5049833;28;20041;-84
2023/03/21 04:15:03;;;;;;;10.70;7.93;;;;;;;;;;5051247;28;20131;-84
2023/03/21 04:17:40;;;;;;;9.90;8.05;;;;;;;;;;5049863;28;20139;-84
2023/03/21 04:20:21;;;;;;;9.30;8.13;;;;;;;;;;5050070;28;20490;-84
2023/03/21 04:23:05;;;;;;;8.50;7.70;;;;;;;;;;5064777;28;20063;-84
2023/03/21 04:25:33;;;;;;;8.63;7.75;;;;;;;;;;5046625;28;20040;-84
2023/03/21 04:28:08;;;;;;;8.35;7.07;;;;;;;;;;5049680;28;20116;-84
2023/03/21 04:30:57;;;;;;;8.75;7.82;;;;;;;;;;5068321;28;20101;-84
2023/03/21 04:33:44;;;;;;;7.97;6.85;;;;;;;;;;5053068;28;20036;-85
2023/03/21 04:36:23;;;;;;;7.28;6.57;;;;;;;;;;5055238;28;20045;-84
2023/03/21 04:38:53;;;;;;;7.65;6.28;;;;;;;;;;5048389;28;20045;-84
2023/03/21 04:41:23;;;;;;;9.23;7.22;;;;;;;;;;5044569;28;20036;-83
2023/03/21 04:43:56;;;;;;;9.35;7.95;;;;;;;;;;5045692;28;20053;-82
2023/03/21 04:46:27;;;;;;;7.97;7.05;;;;;;;;;;5070410;28;20061;-84
2023/03/21 04:49:03;;;;;;;7.28;6.50;;;;;;;;;;5069626;28;20049;-83
2023/03/21 04:51:31;;;;;;;8.77;7.18;;;;;;;;;;5043796;28;20080;-83
2023/03/21 04:54:02;;;;;;;12.10;8.80;;;;;;;;;;5054621;28;20045;-84
2023/03/21 04:59:28;;;;;;;11.45;9.85;;;;;;;;;;4979381;28;20046;-78
2023/03/21 05:01:58;;;;;;;11.75;9.50;;;;;;;;;;4971959;28;20060;-79
2023/03/21 05:04:26;;;;;;;9.15;7.63;;;;;;;;;;4996983;28;20104;-78
2023/03/21 05:06:55;;;;;;;10.48;9.48;;;;;;;;;;4979940;28;20100;-78
2023/03/21 05:09:22;;;;;;;9.40;8.35;;;;;;;;;;4983386;28;20081;-79
2023/03/21 05:11:50;;;;;;;8.55;7.68;;;;;;;;;;4987884;28;20038;-79
2023/03/21 05:14:20;;;;;;;8.57;7.68;;;;;;;;;;4977691;28;20049;-79
2023/03/21 05:16:51;;;;;;;11.68;8.45;;;;;;;;;;4987386;28;20140;-76
2023/03/21 05:19:21;;;;;;;9.73;8.73;;;;;;;;;;4988559;28;20049;-76
2023/03/21 05:21:50;;;;;;;8.50;7.65;;;;;;;;;;4985542;28;20041;-76
2023/03/21 05:24:21;;;;;;;9.02;7.70;;;;;;;;;;4981746;28;20038;-76
2023/03/21 05:26:51;;;;;;;8.07;7.05;;;;;;;;;;4981772;28;20042;-76
2023/03/21 05:29:21;;;;;;;8.37;7.53;;;;;;;;;;4985664;28;20045;-76
2023/03/21 05:31:57;;;;;;;8.52;7.43;;;;;;;;;;4987595;28;20799;-76
2023/03/21 05:34:25;;;;;;;8.75;7.88;;;;;;;;;;4991696;28;20088;-76
2023/03/21 05:36:53;;;;;;;8.80;7.90;;;;;;;;;;4987629;28;20049;-76
2023/03/21 05:39:23;;;;;;;9.00;7.55;;;;;;;;;;4991315;28;20038;-76
2023/03/21 05:42:03;;;;;;;8.70;7.80;;;;;;;;;;4986970;28;20038;-76
2023/03/21 05:44:31;;;;;;;9.10;8.02;;;;;;;;;;4984519;28;20037;-78
2023/03/21 05:47:03;;;;;;;11.00;8.35;;;;;;;;;;4986905;28;20064;-78
2023/03/21 05:49:37;;;;;;;11.25;9.05;;;;;;;;;;4986290;28;20158;-78
2023/03/21 05:52:05;;;;;;;9.65;8.65;;;;;;;;;;4981692;28;20054;-77
2023/03/21 05:54:33;;;;;;;8.98;8.10;;;;;;;;;;4980824;28;20168;-77
2023/03/21 05:57:01;;;;;;;9.48;8.48;;;;;;;;;;4986879;28;20537;-77
2023/03/21 05:59:48;;;;;;;8.90;7.57;;;;;;;;;;5001180;28;20092;-78
2023/03/21 06:02:17;;;;;;;9.90;8.40;;;;;;;;;;4985726;28;20061;-78
2023/03/21 06:04:45;;;;;;;11.32;9.30;;;;;;;;;;4984766;28;20042;-78
2023/03/21 06:07:13;;;;;;;9.65;8.57;;;;;;;;;;5000577;28;20041;-78
2023/03/21 06:09:41;;;;;;;9.43;8.00;;;;;;;;;;4983529;28;20045;-78
2023/03/21 06:12:08;;;;;;;11.88;9.18;;;;;;;;;;5002980;28;20052;-78
2023/03/21 06:14:54;;;;;;;9.65;8.00;;;;;;;;;;5002905;28;20124;-78
2023/03/21 06:17:29;;;;;;;12.10;8.93;;;;;;;;;;4982531;28;20179;-78
2023/03/21 06:20:03;;;;;;;11.68;9.80;;;;;;;;;;4984813;28;20572;-78
2023/03/21 06:22:36;;;;;;;12.82;10.40;;;;;;;;;;4986477;28;20046;-78
2023/03/21 06:25:04;;;;;;;13.23;11.35;;;;;;;;;;4989576;28;20049;-78
2023/03/21 06:27:31;;;;;;;12.55;10.65;;;;;;;;;;4975259;28;20093;-78
2023/03/21 06:29:59;;;;;;;16.05;10.32;;;;;;;;;;4986126;28;20046;-77
2023/03/21 06:32:30;;;;;;;14.60;11.60;;;;;;;;;;4976200;28;20074;-78
2023/03/21 06:35:06;;;;;;;13.40;9.55;;;;;;;;;;4986049;28;20061;-78
2023/03/21 06:37:33;;;;;;;16.92;11.07;;;;;;;;;;4981956;28;20496;-78
2023/03/21 06:40:02;;;;;;;17.95;11.50;;;;;;;;;;4981285;28;20536;-77
2023/03/21 06:42:31;;;;;;;17.98;12.30;;;;;;;;;;4986354;28;20352;-77
2023/03/21 06:45:05;;;;;;;14.88;11.82;;;;;;;;;;4977766;28;20136;-78
2023/03/21 06:47:32;;;;;;;15.88;11.68;;;;;;;;;;4984073;28;20045;-78
2023/03/21 06:50:02;;;;;;;15.60;11.55;;;;;;;;;;4981442;28;20045;-77
2023/03/21 06:52:32;;;;;;;13.63;11.43;;;;;;;;;;4982783;28;20563;-77
2023/03/21 06:54:59;;;;;;;14.95;11.70;;;;;;;;;;5004018;28;20050;-78
2023/03/21 06:57:27;;;;;;;15.10;10.77;;;;;;;;;;4998272;28;20042;-78
2023/03/21 06:59:54;;;;;;;12.70;10.77;;;;;;;;;;4995316;28;20100;-78
2023/03/21 07:02:23;;;;;;;13.73;10.80;;;;;;;;;;4974057;28;20045;-80
2023/03/21 07:05:03;;;;;;;11.93;10.65;;;;;;;;;;4983648;28;20041;-77
2023/03/21 07:07:31;;;;;;;14.07;11.23;;;;;;;;;;5003620;28;20046;-77
2023/03/21 07:09:58;;;;;;;13.80;11.02;;;;;;;;;;5009016;28;20127;-77
2023/03/21 07:12:32;;;;;;;15.77;12.20;;;;;;;;;;4991501;28;20058;-78
2023/03/21 07:15:11;;;;;;;15.32;11.25;;;;;;;;;;4991412;28;20093;-78
2023/03/21 07:17:40;;;;;;;16.40;12.40;;;;;;;;;;4989774;28;20489;-77
2023/03/21 07:20:07;;;;;;;15.82;11.80;;;;;;;;;;4990624;28;20045;-77
2023/03/21 07:22:38;;;;;;;16.98;12.55;;;;;;;;;;5008560;28;20504;-78
2023/03/21 07:25:06;;;;;;;16.95;12.52;;;;;;;;;;4991282;28;20732;-78
2023/03/21 07:27:41;;;;;;;18.42;11.98;;;;;;;;;;5008607;28;20289;-79
2023/03/21 07:30:09;;;;;;;17.15;12.43;;;;;;;;;;5007954;28;20765;-79
2023/03/21 07:32:36;;;;;;;18.05;13.80;;;;;;;;;;5009027;28;20050;-79
2023/03/21 07:35:06;;;;;;;16.70;12.70;;;;;;;;;;5008457;28;20423;-79
2023/03/21 07:37:34;;;;;;;15.70;12.32;;;;;;;;;;4991335;28;20076;-79
2023/03/21 07:40:09;;;;;;;16.75;12.65;;;;;;;;;;4991803;28;20303;-79
2023/03/21 07:42:39;;;;;;;17.98;13.23;;;;;;;;;;4971532;28;20050;-76
2023/03/21 07:45:08;;;;;;;15.57;12.18;;;;;;;;;;4971329;28;20141;-76
2023/03/21 07:47:36;;;;;;;15.15;11.50;;;;;;;;;;4988231;28;20396;-78
2023/03/21 07:50:03;;;;;;;15.95;10.80;;;;;;;;;;4988571;28;20243;-78
2023/03/21 07:52:32;;;;;;;12.23;11.02;;;;;;;;;;4988410;28;20295;-78
2023/03/21 07:54:59;;;;;;;10.23;9.25;;;;;;;;;;4988746;28;20108;-78
2023/03/21 07:57:27;;;;;;;17.92;9.40;;;;;;;;;;4988493;28;20054;-78
2023/03/21 07:59:54;;;;;;;9.77;8.20;;;;;;;;;;4988145;28;20058;-78
2023/03/21 08:02:22;;;;;;;9.80;8.90;;;;;;;;;;4988331;28;20050;-78
2023/03/21 08:04:49;;;;;;;10.02;8.93;;;;;;;;;;4987808;28;20046;-78
2023/03/21 08:07:16;;;;;;;13.68;8.48;;;;;;;;;;4988307;28;20119;-78
2023/03/21 08:09:44;;;;;;;12.65;9.25;;;;;;;;;;4970605;28;20717;-78
2023/03/21 08:12:11;;;;;;;14.23;9.30;;;;;;;;;;4991722;28;20125;-78
2023/03/21 08:14:39;;;;;;;11.23;8.43;;;;;;;;;;4989090;28;20416;-78
2023/03/21 08:17:08;;;;;;;8.50;7.68;;;;;;;;;;4992155;28;20050;-78
2023/03/21 08:19:36;;;;;;;11.73;8.20;;;;;;;;;;4989575;28;20512;-78
2023/03/21 08:22:05;;;;;;;7.80;7.10;;;;;;;;;;4987814;28;20767;-78
2023/03/21 08:24:33;;;;;;;8.52;6.82;;;;;;;;;;4990698;28;20661;-78
2023/03/21 08:27:02;;;;;;;6.70;6.10;;;;;;;;;;4986110;28;20053;-78
2023/03/21 08:29:39;;;;;;;8.13;6.68;;;;;;;;;;4987744;28;20376;-79
2023/03/21 08:32:06;;;;;;;9.18;5.72;;;;;;;;;;5006330;28;20133;-79
2023/03/21 08:34:34;;;;;;;9.43;6.60;;;;;;;;;;5000281;28;20061;-79
2023/03/21 08:37:01;;;;;;;10.68;6.40;;;;;;;;;;4988826;28;20045;-79
2023/03/21 08:39:29;;;;;;;14.55;6.40;;;;;;;;;;4984577;28;20045;-78
2023/03/21 08:41:56;;;;;;;9.73;6.43;;;;;;;;;;4997855;28;20646;-79
2023/03/21 08:44:24;;;;;;;8.25;6.78;;;;;;;;;;4967441;28;20058;-79
2023/03/21 08:46:52;;;;;;;7.38;6.00;;;;;;;;;;4997664;28;20034;-79
2023/03/21 08:49:19;;;;;;;7.00;6.10;;;;;;;;;;4993894;28;20045;-79
2023/03/21 08:51:47;;;;;;;20.27;7.28;;;;;;;;;;4987793;28;20069;-79
2023/03/21 08:54:22;;;;;;;12.25;6.07;;;;;;;;;;4971024;28;20050;-79
2023/03/21 08:56:50;;;;;;;7.03;6.00;;;;;;;;;;4984614;28;20077;-79
2023/03/21 08:59:22;;;;;;;24.77;19.38;;;;;;;;;;4974404;28;20073;-78
2023/03/21 09:01:56;;;;;;;13.57;12.32;;;;;;;;;;4999413;28;20066;-78
2023/03/21 09:04:24;;;;;;;7.68;5.40;;;;;;;;;;4995333;28;20140;-79
2023/03/21 09:06:55;;;;;;;9.82;9.00;;;;;;;;;;4996814;28;20525;-78
2023/03/21 09:09:22;;;;;;;10.45;5.45;;;;;;;;;;4991440;28;20054;-78
2023/03/21 09:11:50;;;;;;;6.75;5.40;;;;;;;;;;5005785;28;20054;-78
2023/03/21 09:14:19;;;;;;;4.53;4.13;;;;;;;;;;5002971;28;20057;-79
2023/03/21 09:16:50;;;;;;;6.90;5.55;;;;;;;;;;5004066;28;20141;-79
2023/03/21 09:19:18;;;;;;;8.68;5.18;;;;;;;;;;5004965;28;20396;-79
2023/03/21 09:21:51;;;;;;;8.85;4.68;;;;;;;;;;5007771;28;20116;-78
2023/03/21 09:24:19;;;;;;;5.75;5.18;;;;;;;;;;5006806;28;20056;-78
2023/03/21 09:26:49;;;;;;;5.45;4.95;;;;;;;;;;5003969;28;20097;-78
2023/03/21 09:29:19;;;;;;;7.78;7.07;;;;;;;;;;5002587;28;20053;-78
2023/03/21 09:31:47;;;;;;;5.82;5.32;;;;;;;;;;5003198;28;20066;-78
2023/03/21 09:34:15;;;;;;;5.95;5.30;;;;;;;;;;5003527;28;20064;-78
2023/03/21 09:36:43;;;;;;;6.45;4.57;;;;;;;;;;5005696;28;20050;-78
2023/03/21 09:39:11;;;;;;;5.30;4.80;;;;;;;;;;5005780;28;20148;-78
2023/03/21 09:41:42;;;;;;;9.20;5.05;;;;;;;;;;5005703;28;20046;-78
2023/03/21 09:44:16;;;;;;;7.45;4.35;;;;;;;;;;5008829;28;20050;-78
2023/03/21 09:46:44;;;;;;;4.75;4.25;;;;;;;;;;4993545;28;20041;-78
2023/03/21 09:49:16;;;;;;;4.00;3.70;;;;;;;;;;5005437;28;20073;-78
2023/03/21 09:51:47;;;;;;;4.00;3.60;;;;;;;;;;5004497;28;20042;-79
2023/03/21 09:54:22;;;;;;;4.03;3.50;;;;;;;;;;5004576;28;20057;-79
2023/03/21 09:56:52;;;;;;;5.45;4.30;;;;;;;;;;4986700;28;20062;-78
2023/03/21 09:59:27;;;;;;;4.82;4.43;;;;;;;;;;4998351;28;20053;-78
2023/03/21 10:01:57;;;;;;;6.97;4.25;;;;;;;;;;4998577;28;20046;-78
2023/03/21 10:04:25;;;;;;;6.50;4.60;;;;;;;;;;4997923;28;20742;-78
2023/03/21 10:06:57;;;;;;;4.32;4.03;;;;;;;;;;5000716;28;20057;-78
2023/03/21 10:09:27;;;;;;;6.55;4.03;;;;;;;;;;4994150;28;20046;-78
2023/03/21 10:11:54;;;;;;;3.70;3.40;;;;;;;;;;5001817;28;20096;-78
2023/03/21 10:14:35;;;;;;;5.75;4.50;;;;;;;;;;5003919;28;20523;-78
2023/03/21 10:17:21;;;;;;;7.28;3.95;;;;;;;;;;4998456;28;20401;-77
2023/03/21 10:19:51;;;;;;;5.43;3.88;;;;;;;;;;5000914;28;20042;-77
2023/03/21 10:22:18;;;;;;;4.18;3.75;;;;;;;;;;5002195;28;20751;-77
2023/03/21 10:24:45;;;;;;;4.57;3.65;;;;;;;;;;5003927;28;20427;-78
2023/03/21 10:27:13;;;;;;;5.10;3.72;;;;;;;;;;4999891;28;20034;-79
2023/03/21 10:29:42;;;;;;;3.92;3.63;;;;;;;;;;4997977;28;20053;-78
2023/03/21 10:32:14;;;;;;;4.32;3.45;;;;;;;;;;4985559;28;20064;-78
2023/03/21 10:34:47;;;;;;;10.60;4.22;;;;;;;;;;4992548;28;20419;-78
2023/03/21 10:37:15;;;;;;;5.95;4.00;;;;;;;;;;4997371;28;20046;-78
2023/03/21 10:39:45;;;;;;;6.28;3.67;;;;;;;;;;4999926;28;20050;-78
2023/03/21 10:42:23;;;;;;;6.80;3.72;;;;;;;;;;5001625;28;20478;-77
2023/03/21 10:44:55;;;;;;;4.28;3.70;;;;;;;;;;5003543;28;20547;-77
2023/03/21 10:47:33;;;;;;;3.88;3.55;;;;;;;;;;5000829;28;20073;-78
2023/03/21 10:50:01;;;;;;;3.63;3.33;;;;;;;;;;5002830;28;20054;-78
2023/03/21 10:52:37;;;;;;;3.83;3.50;;;;;;;;;;5002437;28;20068;-77
2023/03/21 10:55:07;;;;;;;4.00;3.15;;;;;;;;;;5002518;28;20488;-77
2023/03/21 10:57:36;;;;;;;5.35;3.60;;;;;;;;;;5046328;22;20517;-83
2023/03/21 11:00:15;;;;;;;5.03;3.72;;;;;;;;;;5053618;28;20048;-86
2023/03/21 11:02:48;;;;;;;3.20;3.00;;;;;;;;;;5055715;28;20072;-86
2023/03/21 11:05:27;;;;;;;4.00;3.60;;;;;;;;;;5065729;28;20075;-87
2023/03/21 11:08:06;;;;;;;3.90;3.50;;;;;;;;;;5064294;28;20033;-85
2023/03/21 11:10:37;;;;;;;3.58;3.10;;;;;;;;;;5066435;28;20049;-86
2023/03/21 11:13:17;;;;;;;3.78;3.45;;;;;;;;;;5050640;28;20040;-86
2023/03/21 11:15:58;;;;;;;4.55;3.20;;;;;;;;;;5066875;28;20735;-83
2023/03/21 11:18:26;;;;;;;7.45;3.63;;;;;;;;;;5048982;28;20115;-84
2023/03/21 11:20:57;;;;;;;4.00;3.60;;;;;;;;;;5052069;28;20041;-85
2023/03/21 11:23:26;;;;;;;4.97;4.00;;;;;;;;;;5042150;28;22464;-85
2023/03/21 11:25:59;;;;;;;4.18;3.55;;;;;;;;;;5015043;28;20056;-85
2023/03/21 11:28:43;;;;;;;15.18;12.95;;;;;;;;;;5033417;28;20517;-85
2023/03/21 11:31:13;;;;;;;8.43;4.00;;;;;;;;;;5051807;28;20045;-86
2023/03/21 11:33:53;;;;;;;5.22;4.18;;;;;;;;;;5055204;28;20069;-84
2023/03/21 11:36:26;;;;;;;7.97;7.00;;;;;;;;;;5023131;28;20152;-85
2023/03/21 11:39:00;;;;;;;5.25;3.40;;;;;;;;;;5045317;28;20048;-86
2023/03/21 11:41:35;;;;;;;3.70;3.40;;;;;;;;;;5058569;28;20041;-83
2023/03/21 11:44:31;;;;;;;3.13;2.92;;;;;;;;;;5052625;28;20053;-85
2023/03/21 11:47:02;;;;;;;2.97;2.78;;;;;;;;;;5057975;28;20056;-83
2023/03/21 11:49:33;;;;;;;3.47;3.17;;;;;;;;;;5054457;28;20044;-86
2023/03/21 11:52:35;;;;;;;3.28;2.97;;;;;;;;;;5040533;28;20103;-84
2023/03/21 11:55:20;;;;;;;6.25;4.43;;;;;;;;;;5056277;28;20056;-83
2023/03/21 11:58:06;;;;;;;3.33;3.00;;;;;;;;;;5041280;28;20575;-85
2023/03/21 12:01:00;;;;;;;4.30;3.42;;;;;;;;;;5043338;28;20100;-85
2023/03/21 12:03:46;;;;;;;4.82;3.13;;;;;;;;;;5066269;28;20131;-85
2023/03/21 12:06:28;;;;;;;53.65;6.45;;;;;;;;;;5062970;28;20049;-85
2023/03/21 12:09:03;;;;;;;3.20;2.90;;;;;;;;;;5075665;28;20037;-86
2023/03/21 12:11:38;;;;;;;6.43;3.22;;;;;;;;;;5061650;28;20112;-87
2023/03/21 12:14:27;;;;;;;3.60;3.30;;;;;;;;;;5073031;28;20064;-84
2023/03/21 12:16:57;;;;;;;4.00;3.28;;;;;;;;;;5067642;28;20017;-84
2023/03/21 12:19:44;;;;;;;5.97;2.83;;;;;;;;;;5058872;28;20561;-84
2023/03/21 12:22:15;;;;;;;5.18;3.40;;;;;;;;;;5065405;28;20049;-87
2023/03/21 12:25:23;;;;;;;4.43;4.03;;;;;;;;;;5061888;28;20045;-84
2023/03/21 12:28:02;;;;;;;4.05;3.50;;;;;;;;;;5001820;28;20075;-87
2023/03/21 12:30:41;;;;;;;4.53;4.10;;;;;;;;;;5054905;28;20090;-85
2023/03/21 12:33:17;;;;;;;4.07;3.13;;;;;;;;;;5031166;28;20102;-84
2023/03/21 12:35:56;;;;;;;3.67;3.25;;;;;;;;;;5046716;28;20052;-84
2023/03/21 12:38:31;;;;;;;3.67;2.60;;;;;;;;;;5050339;28;20049;-84
2023/03/21 12:41:36;;;;;;;9.90;2.60;;;;;;;;;;5052522;28;20052;-84
2023/03/21 12:44:19;;;;;;;2.75;2.53;;;;;;;;;;5043841;28;20071;-83
2023/03/21 12:47:21;;;;;;;3.05;2.78;;;;;;;;;;5044453;28;20131;-84
2023/03/21 12:50:05;;;;;;;3.10;2.70;;;;;;;;;;5052695;28;20048;-84
2023/03/21 12:52:39;;;;;;;4.10;3.20;;;;;;;;;;5053277;28;20048;-84
2023/03/21 12:55:18;;;;;;;4.22;3.00;;;;;;;;;;5051657;28;20417;-84
2023/03/21 12:57:50;;;;;;;3.42;2.88;;;;;;;;;;5054688;28;20143;-84
2023/03/21 13:00:32;;;;;;;3.50;3.20;;;;;;;;;;5051746;28;20045;-86
2023/03/21 13:03:05;;;;;;;9.25;4.50;;;;;;;;;;5055419;28;20520;-86
2023/03/21 13:05:44;;;;;;;3.40;3.20;;;;;;;;;;5057057;28;20041;-83
2023/03/21 13:08:23;;;;;;;8.73;3.88;;;;;;;;;;5052272;28;20092;-83
2023/03/21 13:10:52;;;;;;;4.00;3.42;;;;;;;;;;5052497;28;20347;-84
2023/03/21 13:13:36;;;;;;;3.20;2.97;;;;;;;;;;5052892;28;20047;-84
2023/03/21 13:16:23;;;;;;;6.13;5.22;;;;;;;;;;5053500;28;20463;-86
2023/03/21 13:19:02;;;;;;;3.83;3.60;;;;;;;;;;5057655;28;20053;-84
2023/03/21 13:21:51;;;;;;;4.60;3.25;;;;;;;;;;5056014;28;20044;-83
2023/03/21 13:24:46;;;;;;;4.07;3.67;;;;;;;;;;5036130;28;20128;-84
2023/03/21 13:27:19;;;;;;;3.90;3.60;;;;;;;;;;5050375;28;20075;-84
2023/03/21 13:29:52;;;;;;;34.13;5.70;;;;;;;;;;5060757;28;20131;-83
2023/03/21 13:32:28;;;;;;;4.78;3.60;;;;;;;;;;5059258;28;20056;-85
2023/03/21 13:35:03;;;;;;;3.85;3.53;;;;;;;;;;5052792;28;20535;-85
2023/03/21 13:37:33;;;;;;;11.30;3.80;;;;;;;;;;5059467;28;20172;-85
2023/03/21 13:40:09;;;;;;;7.97;3.90;;;;;;;;;;5059099;28;20104;-84
2023/03/21 13:42:43;;;;;;;4.32;3.80;;;;;;;;;;5049276;28;20048;-84
2023/03/21 13:45:24;;;;;;;6.10;3.63;;;;;;;;;;5026403;28;20137;-85
2023/03/21 13:47:58;;;;;;;6.63;3.47;;;;;;;;;;5052975;28;20040;-86
2023/03/21 13:50:50;;;;;;;6.18;3.42;;;;;;;;;;5047937;28;20037;-85
2023/03/21 13:53:42;;;;;;;3.85;3.33;;;;;;;;;;5043026;28;20060;-85
2023/03/21 13:56:15;;;;;;;3.38;3.08;;;;;;;;;;5030452;28;20121;-85
2023/03/21 13:58:46;;;;;;;9.30;3.55;;;;;;;;;;5058268;28;20041;-85
2023/03/21 14:01:16;;;;;;;5.13;2.97;;;;;;;;;;5065997;28;20064;-83
2023/03/21 14:03:46;;;;;;;4.55;3.95;;;;;;;;;;5063819;28;20121;-85
2023/03/21 14:06:17;;;;;;;3.45;3.08;;;;;;;;;;5062952;28;20041;-85
2023/03/21 14:08:47;;;;;;;7.35;3.22;;;;;;;;;;5058393;28;20088;-84
2023/03/21 14:11:19;;;;;;;2.72;2.50;;;;;;;;;;5064997;28;20059;-83
2023/03/21 14:13:46;;;;;;;4.72;3.70;;;;;;;;;;5050557;28;20480;-84
2023/03/21 14:16:18;;;;;;;3.97;3.58;;;;;;;;;;5049832;28;20075;-83
2023/03/21 14:18:55;;;;;;;6.97;3.58;;;;;;;;;;5048759;28;20453;-83
2023/03/21 14:21:55;;;;;;;5.15;3.60;;;;;;;;;;5036420;28;20063;-84
2023/03/21 14:24:32;;;;;;;5.20;3.70;;;;;;;;;;5034227;28;20056;-85
2023/03/21 14:27:05;;;;;;;4.30;3.40;;;;;;;;;;5030106;28;20057;-83
2023/03/21 14:29:34;;;;;;;3.58;3.28;;;;;;;;;;5045177;28;20296;-85
2023/03/21 14:32:07;;;;;;;8.05;3.55;;;;;;;;;;5035569;28;20052;-86
2023/03/21 14:34:38;;;;;;;;;;;;;;;;;;5051025;28;20068;-83
2023/03/21 14:37:13;;;;;;;3.53;3.22;;;;;;;;;;5047191;28;19933;-83
2023/03/21 14:39:43;;;;;;;4.13;2.67;;;;;;;;;;5035687;28;20052;-84
2023/03/21 14:42:13;;;;;;;6.75;3.47;;;;;;;;;;5028641;28;20095;-83
2023/03/21 14:44:48;;;;;;;3.70;3.40;;;;;;;;;;5044861;28;20091;-84
2023/03/21 14:47:31;;;;;;;7.25;3.03;;;;;;;;;;5031416;28;20045;-84
2023/03/21 14:50:03;;;;;;;3.95;2.78;;;;;;;;;;5028475;28;20071;-86
2023/03/21 14:52:34;;;;;;;5.07;3.10;;;;;;;;;;5023519;28;20621;-84
2023/03/21 14:55:02;;;;;;;3.33;3.05;;;;;;;;;;5047201;28;20494;-86
2023/03/21 14:57:39;;;;;;;5.30;2.83;;;;;;;;;;5034676;28;20048;-85
2023/03/21 15:00:11;;;;;;;3.75;3.45;;;;;;;;;;5060968;28;20098;-85
2023/03/21 15:02:41;;;;;;;6.15;3.42;;;;;;;;;;5071556;28;20035;-85
2023/03/21 15:05:15;;;;;;;3.92;3.47;;;;;;;;;;5073894;28;20101;-82
2023/03/21 15:08:00;;;;;;;19.45;5.38;;;;;;;;;;5057889;28;20099;-83
2023/03/21 15:10:29;;;;;;;9.38;3.35;;;;;;;;;;5059304;28;20053;-85
2023/03/21 15:13:13;;;;;;;3.92;2.95;;;;;;;;;;5057855;28;20041;-84
2023/03/21 15:15:45;;;;;;;6.80;3.40;;;;;;;;;;5057011;28;20474;-83
2023/03/21 15:18:19;;;;;;;7.80;3.50;;;;;;;;;;5055552;28;20102;-83
2023/03/21 15:23:50;;;;;;;4.20;3.80;;;;;;;;;;5046361;28;20418;-86
2023/03/21 15:26:21;;;;;;;3.60;3.30;;;;;;;;;;5051893;28;20072;-82
2023/03/21 15:28:58;;;;;;;3.72;3.42;;;;;;;;;;5053218;28;20044;-83
2023/03/21 15:31:30;;;;;;;4.72;4.30;;;;;;;;;;5055861;28;20049;-85
2023/03/21 15:34:01;;;;;;;3.72;3.22;;;;;;;;;;5035637;28;20502;-84
2023/03/21 15:36:36;;;;;;;3.05;2.85;;;;;;;;;;5054214;28;20045;-83